createdAt,value
2022-10-21T00:01:00.969Z,29.48
2022-10-21T00:03:28.304Z,32.70
2022-10-21T00:05:56.776Z,27.42
2022-10-21T00:08:24.687Z,31.27
2022-10-21T00:10:59.055Z,26.05
2022-10-21T00:13:29.500Z,31.67
2022-10-21T00:16:09.996Z,29.88
2022-10-21T00:18:39.037Z,24.27
2022-10-21T00:21:13.600Z,25.90
2022-10-21T00:23:41.542Z,25.58
2022-10-21T00:26:08.779Z,27.13
2022-10-21T00:28:36.386Z,22.88
2022-10-21T00:31:08.697Z,21.90
2022-10-21T00:36:04.665Z,21.13
2022-10-21T00:38:32.793Z,21.38
2022-10-21T00:41:00.941Z,19.98
2022-10-21T00:43:28.899Z,22.10
2022-10-21T00:46:07.954Z,23.25
2022-10-21T00:48:42.399Z,23.58
2022-10-21T00:51:17.944Z,19.83
2022-10-21T00:53:50.074Z,21.42
2022-10-21T00:56:25.663Z,23.25
2022-10-21T00:58:57.288Z,19.15
2022-10-21T01:01:24.598Z,21.00
2022-10-21T01:03:51.864Z,21.15
2022-10-21T01:06:25.677Z,22.73
2022-10-21T01:08:54.870Z,22.13
2022-10-21T01:11:24.085Z,18.33
2022-10-21T01:14:08.032Z,20.20
2022-10-21T01:16:48.245Z,21.83
2022-10-21T01:19:34.013Z,23.42
2022-10-21T01:22:17.045Z,26.00
2022-10-21T01:25:05.451Z,20.20
2022-10-21T01:28:15.395Z,33.47
2022-10-21T01:31:10.097Z,17.88
2022-10-21T01:34:16.941Z,20.80
2022-10-21T01:37:01.803Z,25.05
2022-10-21T01:39:46.178Z,22.92
2022-10-21T01:42:43.521Z,18.23
2022-10-21T01:45:22.469Z,17.75
2022-10-21T01:48:13.321Z,20.83
2022-10-21T01:50:52.149Z,21.67
2022-10-21T01:53:21.866Z,21.58
2022-10-21T01:55:50.725Z,21.48
2022-10-21T01:58:26.936Z,18.70
2022-10-21T02:00:57.550Z,21.55
2022-10-21T02:03:33.205Z,20.02
2022-10-21T02:06:00.576Z,18.70
2022-10-21T02:08:30.276Z,18.75
2022-10-21T02:11:01.457Z,20.73
2022-10-21T02:13:40.801Z,20.17
2022-10-21T02:16:13.310Z,19.48
2022-10-21T02:18:40.719Z,24.42
2022-10-21T02:21:21.319Z,18.90
2022-10-21T02:23:59.991Z,22.15
2022-10-21T02:26:30.912Z,18.10
2022-10-21T02:29:01.393Z,20.40
2022-10-21T02:32:01.357Z,19.30
2022-10-21T02:34:57.777Z,16.30
2022-10-21T02:37:51.149Z,19.35
2022-10-21T02:40:39.383Z,31.40
2022-10-21T02:43:18.979Z,19.88
2022-10-21T02:45:49.884Z,20.52
2022-10-21T02:48:17.251Z,20.73
2022-10-21T02:50:44.410Z,18.27
2022-10-21T02:53:13.407Z,17.30
2022-10-21T02:55:42.772Z,23.13
2022-10-21T02:58:10.137Z,19.50
2022-10-21T03:00:37.413Z,18.33
2022-10-21T03:03:04.722Z,27.88
2022-10-21T03:07:58.990Z,17.13
2022-10-21T03:10:26.258Z,20.98
2022-10-21T03:12:53.797Z,19.70
2022-10-21T03:15:21.002Z,22.65
2022-10-21T03:17:48.456Z,20.85
2022-10-21T03:20:16.206Z,21.60
2022-10-21T03:22:44.280Z,20.80
2022-10-21T03:25:11.966Z,21.95
2022-10-21T03:27:39.910Z,20.48
2022-10-21T03:30:08.702Z,20.98
2022-10-21T03:32:36.140Z,21.85
2022-10-21T03:35:03.933Z,24.35
2022-10-21T03:37:30.998Z,21.58
2022-10-21T03:39:58.009Z,26.58
2022-10-21T03:42:25.308Z,23.83
2022-10-21T03:44:52.379Z,19.50
2022-10-21T03:47:19.602Z,25.60
2022-10-21T03:49:46.716Z,27.67
2022-10-21T03:52:13.933Z,20.77
2022-10-21T03:54:41.213Z,22.15
2022-10-21T03:57:08.584Z,29.33
2022-10-21T03:59:38.201Z,20.30
2022-10-21T04:02:05.436Z,19.15
2022-10-21T04:04:33.617Z,21.80
2022-10-21T04:07:03.262Z,26.10
2022-10-21T04:09:30.404Z,21.15
2022-10-21T04:11:57.572Z,21.48
2022-10-21T04:14:24.661Z,24.40
2022-10-21T04:17:02.153Z,22.30
2022-10-21T04:19:29.777Z,20.60
2022-10-21T04:21:56.802Z,26.80
2022-10-21T04:24:24.027Z,21.83
2022-10-21T04:26:51.123Z,32.28
2022-10-21T04:29:18.188Z,21.95
2022-10-21T04:31:45.294Z,21.27
2022-10-21T04:34:12.676Z,28.75
2022-10-21T04:36:39.777Z,22.00
2022-10-21T04:39:07.078Z,22.33
2022-10-21T04:41:34.315Z,27.20
2022-10-21T04:44:03.443Z,28.75
2022-10-21T04:46:30.674Z,22.05
2022-10-21T04:48:57.787Z,23.35
2022-10-21T04:51:25.254Z,30.92
2022-10-21T04:53:52.347Z,28.13
2022-10-21T04:56:19.569Z,30.48
2022-10-21T04:58:46.620Z,27.83
2022-10-21T05:01:13.814Z,25.60
2022-10-21T05:03:41.153Z,25.90
2022-10-21T05:06:08.224Z,24.13
2022-10-21T05:08:35.465Z,26.55
2022-10-21T05:11:05.048Z,22.27
2022-10-21T05:13:42.467Z,19.70
2022-10-21T05:16:12.064Z,22.92
2022-10-21T05:18:46.730Z,29.92
2022-10-21T05:21:13.909Z,24.92
2022-10-21T05:23:41.261Z,25.27
2022-10-21T05:26:09.095Z,22.55
2022-10-21T05:28:36.715Z,26.33
2022-10-21T05:31:06.212Z,22.27
2022-10-21T05:33:33.552Z,21.48
2022-10-21T05:36:07.606Z,22.35
2022-10-21T05:38:38.341Z,26.00
2022-10-21T05:41:05.740Z,25.85
2022-10-21T05:43:32.866Z,24.45
2022-10-21T05:46:00.321Z,23.27
2022-10-21T05:48:27.425Z,30.65
2022-10-21T05:50:58.460Z,26.00
2022-10-21T05:53:26.019Z,23.30
2022-10-21T05:56:03.051Z,24.33
2022-10-21T05:58:34.610Z,21.88
2022-10-21T06:01:02.504Z,24.05
2022-10-21T06:03:32.573Z,29.10
2022-10-21T06:06:03.666Z,33.20
2022-10-21T06:08:33.393Z,28.17
2022-10-21T06:11:11.637Z,23.52
2022-10-21T06:13:39.858Z,30.52
2022-10-21T06:16:08.039Z,35.80
2022-10-21T06:18:35.450Z,32.35
2022-10-21T06:21:08.384Z,25.27
2022-10-21T06:23:36.434Z,30.20
2022-10-21T06:26:10.785Z,29.67
2022-10-21T06:28:40.797Z,24.83
2022-10-21T06:31:12.502Z,25.25
2022-10-21T06:33:42.473Z,23.58
2022-10-21T06:36:11.801Z,27.33
2022-10-21T06:38:38.884Z,26.75
2022-10-21T06:41:13.760Z,28.83
2022-10-21T06:43:42.397Z,25.02
2022-10-21T06:46:13.167Z,30.83
2022-10-21T06:48:40.890Z,29.80
2022-10-21T06:51:15.088Z,28.75
2022-10-21T06:53:43.896Z,31.88
2022-10-21T06:56:16.469Z,26.35
2022-10-21T06:58:49.071Z,24.00
2022-10-21T07:01:33.595Z,34.70
2022-10-21T07:04:06.251Z,24.88
2022-10-21T07:06:36.042Z,29.33
2022-10-21T07:09:08.693Z,26.50
2022-10-21T07:11:36.448Z,32.40
2022-10-21T07:14:04.036Z,28.83
2022-10-21T07:16:34.899Z,29.00
2022-10-21T07:19:02.098Z,35.50
2022-10-21T07:21:31.530Z,28.20
2022-10-21T07:24:00.144Z,27.75
2022-10-21T07:26:34.859Z,26.10
2022-10-21T07:29:02.617Z,34.42
2022-10-21T07:31:33.928Z,25.58
2022-10-21T07:36:34.066Z,33.70
2022-10-21T07:39:09.212Z,38.00
2022-10-21T07:41:45.861Z,36.83
2022-10-21T07:44:13.335Z,23.10
2022-10-21T07:46:44.815Z,32.83
2022-10-21T07:49:13.601Z,30.00
2022-10-21T07:51:40.964Z,24.88
2022-10-21T07:54:09.355Z,32.65
2022-10-21T07:56:43.517Z,25.23
2022-10-21T07:59:13.471Z,28.13
2022-10-21T08:01:44.762Z,29.42
2022-10-21T08:04:18.368Z,29.35
2022-10-21T08:06:47.150Z,32.17
2022-10-21T08:09:16.222Z,29.65
2022-10-21T08:11:43.756Z,26.88
2022-10-21T08:14:11.911Z,28.70
2022-10-21T08:16:40.040Z,25.55
2022-10-21T08:19:09.101Z,23.98
2022-10-21T08:21:37.798Z,24.17
2022-10-21T08:24:05.804Z,23.58
2022-10-21T08:26:33.213Z,26.02
2022-10-21T08:29:02.410Z,25.77
2022-10-21T08:31:29.491Z,28.85
2022-10-21T08:33:56.654Z,32.00
2022-10-21T08:36:28.472Z,26.45
2022-10-21T08:39:03.099Z,26.55
2022-10-21T08:41:30.058Z,23.20
2022-10-21T08:44:29.563Z,21.95
2022-10-21T08:47:25.592Z,18.20
2022-10-21T08:49:58.884Z,28.92
2022-10-21T08:52:53.230Z,26.88
2022-10-21T08:55:31.763Z,25.92
2022-10-21T08:58:01.149Z,22.63
2022-10-21T09:00:40.199Z,20.60
2022-10-21T09:03:54.673Z,28.05
2022-10-21T09:06:39.433Z,24.67
2022-10-21T09:09:34.852Z,30.15
2022-10-21T09:12:31.996Z,24.17
2022-10-21T09:15:34.260Z,25.73
2022-10-21T09:18:13.010Z,24.60
2022-10-21T09:21:31.324Z,22.90
2022-10-21T09:24:42.038Z,23.85
2022-10-21T09:27:10.795Z,27.15
2022-10-21T09:29:44.842Z,24.95
2022-10-21T09:35:20.920Z,28.27
2022-10-21T09:38:05.541Z,28.42
2022-10-21T09:40:34.060Z,25.15
2022-10-21T09:43:03.027Z,23.33
2022-10-21T09:45:43.822Z,26.13
2022-10-21T09:48:20.122Z,25.70
2022-10-21T09:50:59.464Z,26.83
2022-10-21T09:53:53.639Z,22.27
2022-10-21T09:56:34.105Z,22.40
2022-10-21T09:59:07.828Z,22.55
2022-10-21T10:01:37.534Z,25.65
2022-10-21T10:04:31.022Z,27.70
2022-10-21T10:07:19.268Z,26.88
2022-10-21T10:09:48.228Z,24.73
2022-10-21T10:12:22.841Z,26.17
2022-10-21T10:14:50.469Z,24.45
2022-10-21T10:17:31.131Z,21.92
2022-10-21T10:20:14.787Z,25.58
2022-10-21T10:22:44.227Z,27.73
2022-10-21T10:25:18.034Z,24.90
2022-10-21T10:28:16.359Z,33.33
2022-10-21T10:30:45.335Z,26.45
2022-10-21T10:33:31.457Z,31.88
2022-10-21T10:36:05.320Z,34.47
2022-10-21T10:38:35.374Z,28.35
2022-10-21T10:41:20.713Z,23.67
2022-10-21T10:43:58.629Z,28.95
2022-10-21T10:46:30.896Z,25.05
2022-10-21T10:51:35.900Z,33.33
2022-10-21T10:54:27.275Z,31.58
2022-10-21T10:57:20.220Z,28.13
2022-10-21T10:59:49.223Z,26.20
2022-10-21T11:02:42.080Z,28.02
2022-10-21T11:06:03.377Z,25.50
2022-10-21T11:08:55.629Z,29.88
2022-10-21T11:11:35.111Z,27.83
2022-10-21T11:14:02.460Z,29.17
2022-10-21T11:17:01.254Z,26.50
2022-10-21T11:20:00.554Z,27.08
2022-10-21T11:25:45.752Z,21.38
2022-10-21T11:28:36.223Z,22.45
2022-10-21T11:31:24.949Z,23.88
2022-10-21T11:34:36.213Z,23.17
2022-10-21T11:37:31.555Z,25.58
2022-10-21T11:40:37.755Z,27.55
2022-10-21T11:43:28.654Z,23.63
2022-10-21T11:46:11.917Z,24.52
2022-10-21T11:49:03.901Z,34.55
2022-10-21T11:51:47.601Z,26.30
2022-10-21T11:55:07.958Z,28.05
2022-10-21T11:58:02.398Z,61.65
2022-10-21T12:00:49.696Z,22.63
2022-10-21T12:03:51.567Z,31.77
2022-10-21T12:06:34.952Z,51.07
2022-10-21T12:09:26.767Z,67.90
2022-10-21T12:12:21.727Z,43.57
2022-10-21T12:15:04.584Z,30.38
2022-10-21T12:20:27.365Z,25.02
2022-10-21T12:23:04.759Z,26.95
2022-10-21T12:26:04.388Z,23.92
2022-10-21T12:29:23.420Z,24.65
2022-10-21T12:32:18.279Z,29.98
2022-10-21T12:34:46.280Z,30.65
2022-10-21T12:37:46.680Z,25.50
2022-10-21T12:40:39.623Z,28.70
2022-10-21T12:43:28.832Z,24.92
2022-10-21T12:46:09.113Z,21.23
2022-10-21T12:48:43.620Z,21.17
2022-10-21T12:51:49.619Z,23.67
2022-10-21T12:54:24.323Z,21.92
2022-10-21T12:57:03.108Z,23.08
2022-10-21T12:59:37.917Z,21.15
2022-10-21T13:02:23.915Z,22.27
2022-10-21T13:05:08.875Z,20.45
2022-10-21T13:07:36.868Z,20.25
2022-10-21T13:10:08.111Z,18.98
2022-10-21T13:12:35.372Z,23.52
2022-10-21T13:15:20.699Z,20.60
2022-10-21T13:17:54.506Z,22.13
2022-10-21T13:20:21.476Z,22.52
2022-10-21T13:23:01.928Z,23.92
2022-10-21T13:25:37.181Z,21.67
2022-10-21T13:28:13.290Z,23.33
2022-10-21T13:31:01.841Z,17.17
2022-10-21T13:33:38.983Z,20.42
2022-10-21T13:36:14.155Z,20.70
2022-10-21T13:38:54.626Z,19.98
2022-10-21T13:41:34.013Z,23.55
2022-10-21T13:44:07.286Z,21.58
2022-10-21T13:46:43.841Z,21.60
2022-10-21T13:49:33.673Z,20.42
2022-10-21T13:52:00.716Z,20.00
2022-10-21T13:54:35.268Z,26.90
2022-10-21T13:57:07.941Z,23.45
2022-10-21T13:59:37.585Z,22.70
2022-10-21T14:02:05.288Z,24.52
2022-10-21T14:04:39.439Z,19.08
2022-10-21T14:07:11.260Z,19.90
2022-10-21T14:09:49.286Z,20.95
2022-10-21T14:12:34.781Z,21.02
2022-10-21T14:15:43.269Z,33.05
2022-10-21T14:18:33.579Z,22.27
2022-10-21T14:21:05.648Z,20.55
2022-10-21T14:23:33.828Z,26.77
2022-10-21T14:26:09.230Z,23.08
2022-10-21T14:28:38.010Z,26.10
2022-10-21T14:31:12.181Z,30.35
2022-10-21T14:33:45.067Z,32.22
2022-10-21T14:36:20.598Z,29.90
2022-10-21T14:38:50.430Z,22.65
2022-10-21T14:41:26.745Z,22.17
2022-10-21T14:43:59.776Z,20.88
2022-10-21T14:46:31.476Z,25.33
2022-10-21T14:49:03.460Z,23.15
2022-10-21T14:51:37.665Z,26.15
2022-10-21T14:54:07.432Z,31.02
2022-10-21T14:56:43.328Z,30.98
2022-10-21T14:59:44.560Z,28.08
2022-10-21T15:02:27.164Z,21.45
2022-10-21T15:05:23.808Z,23.55
2022-10-21T15:07:50.899Z,28.35
2022-10-21T15:10:20.603Z,21.70
2022-10-21T15:12:52.868Z,21.40
2022-10-21T15:18:28.504Z,28.15
2022-10-21T15:21:45.666Z,21.35
2022-10-21T15:24:32.766Z,23.40
2022-10-21T15:27:01.254Z,26.42
2022-10-21T15:29:40.366Z,48.55
2022-10-21T15:32:07.558Z,25.05
2022-10-21T15:34:34.715Z,29.58
2022-10-21T15:37:01.960Z,27.88
2022-10-21T15:39:31.662Z,32.50
2022-10-21T15:42:01.615Z,27.98
2022-10-21T15:44:34.559Z,32.03
2022-10-21T15:47:05.605Z,35.20
2022-10-21T15:49:43.461Z,32.97
2022-10-21T15:52:13.081Z,35.95
2022-10-21T15:54:40.696Z,28.73
2022-10-21T15:57:22.177Z,28.60
2022-10-21T15:59:49.416Z,34.30
2022-10-21T16:02:20.094Z,35.55
2022-10-21T16:04:47.243Z,36.30
2022-10-21T16:07:34.671Z,33.50
2022-10-21T16:10:03.720Z,32.97
2022-10-21T16:12:31.309Z,40.78
2022-10-21T16:14:58.429Z,37.65
2022-10-21T16:17:28.652Z,41.30
2022-10-21T16:19:55.775Z,30.60
2022-10-21T16:22:23.129Z,41.08
2022-10-21T16:24:50.162Z,30.55
2022-10-21T16:27:26.602Z,32.88
2022-10-21T16:30:17.147Z,23.25
2022-10-21T16:32:44.526Z,24.45
2022-10-21T16:35:16.365Z,26.55
2022-10-21T16:37:44.316Z,29.10
2022-10-21T16:40:19.037Z,30.65
2022-10-21T16:42:46.229Z,34.75
2022-10-21T16:45:14.417Z,34.22
2022-10-21T16:47:52.967Z,41.70
2022-10-21T16:50:45.297Z,34.80
2022-10-21T16:53:13.817Z,32.75
2022-10-21T16:55:41.217Z,45.13
2022-10-21T16:58:08.499Z,40.67
2022-10-21T17:00:36.282Z,46.95
2022-10-21T17:03:04.253Z,36.53
2022-10-21T17:08:06.233Z,39.53
2022-10-21T17:10:33.403Z,49.42
2022-10-21T17:13:01.663Z,42.40
2022-10-21T17:15:29.141Z,51.47
2022-10-21T17:17:56.755Z,50.42
2022-10-21T17:20:24.089Z,46.90
2022-10-21T17:22:51.124Z,46.80
2022-10-21T17:25:18.571Z,40.45
2022-10-21T17:27:45.724Z,40.42
2022-10-21T17:30:12.816Z,39.63
2022-10-21T17:32:39.885Z,35.28
2022-10-21T17:35:07.608Z,44.58
2022-10-21T17:37:34.695Z,36.40
2022-10-21T17:40:01.842Z,36.03
2022-10-21T17:42:28.903Z,33.75
2022-10-21T17:44:58.710Z,38.20
2022-10-21T17:47:25.990Z,40.92
2022-10-21T17:49:53.099Z,44.13
2022-10-21T17:52:20.215Z,50.42
2022-10-21T17:54:47.336Z,49.40
2022-10-21T17:57:15.179Z,57.22
2022-10-21T17:59:42.799Z,52.28
2022-10-21T18:02:10.259Z,58.33
2022-10-21T18:04:37.979Z,51.85
2022-10-21T18:07:08.704Z,60.67
2022-10-21T18:09:37.338Z,72.40
2022-10-21T18:12:09.476Z,70.38
2022-10-21T18:14:37.101Z,82.53
2022-10-21T18:17:04.575Z,70.95
2022-10-21T18:19:31.756Z,81.15
2022-10-21T18:22:01.298Z,64.40
2022-10-21T18:24:28.551Z,57.03
2022-10-21T18:26:58.147Z,57.83
2022-10-21T18:29:25.340Z,65.10
2022-10-21T18:31:56.451Z,55.08
2022-10-21T18:34:27.137Z,57.47
2022-10-21T18:36:54.270Z,54.65
2022-10-21T18:39:21.594Z,60.78
2022-10-21T18:41:48.642Z,66.85
2022-10-21T18:44:15.860Z,60.20
2022-10-21T18:46:43.682Z,61.63
2022-10-21T18:49:16.027Z,62.75
2022-10-21T18:51:43.110Z,60.75
2022-10-21T18:54:12.644Z,68.35
2022-10-21T18:56:41.170Z,58.97
2022-10-21T18:59:10.798Z,63.90
2022-10-21T19:01:39.725Z,59.88
2022-10-21T19:04:07.276Z,61.50
2022-10-21T19:06:45.451Z,59.85
2022-10-21T19:09:20.386Z,61.13
2022-10-21T19:11:47.798Z,73.20
2022-10-21T19:14:16.402Z,62.78
2022-10-21T19:16:45.197Z,66.70
2022-10-21T19:19:13.402Z,69.20
2022-10-21T19:21:40.732Z,65.55
2022-10-21T19:24:08.549Z,60.75
2022-10-21T19:26:38.166Z,59.70
2022-10-21T19:29:17.832Z,61.17
2022-10-21T19:34:21.794Z,57.67
2022-10-21T19:36:50.137Z,56.17
2022-10-21T19:39:17.466Z,50.08
2022-10-21T19:41:47.492Z,56.20
2022-10-21T19:44:14.972Z,57.88
2022-10-21T19:46:46.873Z,49.28
2022-10-21T19:49:15.207Z,57.00
2022-10-21T19:51:42.308Z,57.95
2022-10-21T19:54:33.314Z,52.63
2022-10-21T19:57:04.991Z,54.03
2022-10-21T19:59:35.934Z,53.13
2022-10-21T20:02:06.655Z,55.72
2022-10-21T20:04:35.324Z,55.92
2022-10-21T20:07:03.605Z,56.08
2022-10-21T20:09:32.814Z,52.42
2022-10-21T20:12:02.892Z,67.05
2022-10-21T20:14:30.034Z,54.92
2022-10-21T20:16:57.138Z,65.53
2022-10-21T20:19:24.310Z,59.13
2022-10-21T20:21:51.402Z,66.18
2022-10-21T20:24:20.882Z,72.10
2022-10-21T20:26:51.375Z,64.40
2022-10-21T20:29:20.770Z,63.03
2022-10-21T20:31:52.077Z,69.22
2022-10-21T20:34:19.312Z,61.15
2022-10-21T20:36:46.431Z,62.30
2022-10-21T20:39:13.805Z,69.07
2022-10-21T20:41:41.440Z,59.40
2022-10-21T20:44:18.278Z,70.93
2022-10-21T20:46:46.517Z,63.50
2022-10-21T20:49:16.005Z,73.18
2022-10-21T20:51:43.421Z,69.28
2022-10-21T20:54:15.866Z,66.00
2022-10-21T20:56:43.435Z,80.47
2022-10-21T20:59:15.567Z,81.20
2022-10-21T21:01:46.147Z,67.82
2022-10-21T21:04:16.508Z,62.10
2022-10-21T21:06:49.812Z,80.05
2022-10-21T21:12:08.283Z,75.97
2022-10-21T21:14:35.799Z,88.95
2022-10-21T21:17:06.225Z,84.95
2022-10-21T21:19:35.949Z,83.47
2022-10-21T21:22:05.080Z,80.30
2022-10-21T21:24:32.662Z,79.15
2022-10-21T21:26:59.778Z,89.63
2022-10-21T21:29:43.357Z,95.47
2022-10-21T21:32:10.637Z,92.35
2022-10-21T21:34:40.990Z,86.57
2022-10-21T21:37:11.416Z,89.53
2022-10-21T21:39:38.505Z,84.95
2022-10-21T21:42:08.579Z,93.43
2022-10-21T21:44:38.092Z,91.20
2022-10-21T21:47:05.309Z,81.78
2022-10-21T21:49:32.573Z,82.82
2022-10-21T21:52:02.294Z,79.55
2022-10-21T21:54:29.433Z,68.25
2022-10-21T21:57:26.425Z,73.97
2022-10-21T21:59:48.781Z,68.90
2022-10-21T22:02:15.843Z,62.75
2022-10-21T22:04:46.023Z,61.08
2022-10-21T22:07:13.506Z,57.40
2022-10-21T22:09:40.787Z,56.55
2022-10-21T22:12:08.730Z,60.90
2022-10-21T22:14:42.803Z,55.22
2022-10-21T22:17:09.965Z,52.15
2022-10-21T22:19:39.446Z,61.85
2022-10-21T22:22:09.013Z,59.47
2022-10-21T22:24:36.376Z,62.83
2022-10-21T22:27:05.922Z,54.53
2022-10-21T22:29:32.992Z,59.40
2022-10-21T22:32:00.454Z,52.95
2022-10-21T22:34:27.693Z,53.58
2022-10-21T22:36:54.809Z,61.75
2022-10-21T22:39:21.869Z,58.08
2022-10-21T22:41:51.414Z,52.38
2022-10-21T22:44:22.100Z,56.10
2022-10-21T22:46:54.498Z,54.03
2022-10-21T22:49:21.642Z,50.65
2022-10-21T22:54:43.260Z,51.03
2022-10-21T22:57:10.294Z,47.47
2022-10-21T22:59:38.124Z,49.53
2022-10-21T23:02:05.498Z,49.55
2022-10-21T23:04:32.696Z,48.22
2022-10-21T23:06:59.820Z,45.90
2022-10-21T23:09:26.954Z,48.03
2022-10-21T23:11:54.004Z,45.28
2022-10-21T23:14:21.575Z,54.88
2022-10-21T23:16:48.779Z,47.13
2022-10-21T23:19:15.932Z,45.08
2022-10-21T23:21:43.091Z,44.00
2022-10-21T23:24:13.223Z,45.63
2022-10-21T23:26:40.432Z,48.50
2022-10-21T23:29:07.679Z,48.60
2022-10-21T23:31:34.832Z,48.47
2022-10-21T23:34:02.915Z,41.80
2022-10-21T23:36:30.114Z,44.97
2022-10-21T23:38:57.688Z,44.50
2022-10-21T23:41:25.148Z,53.42
2022-10-21T23:43:52.436Z,54.08
2022-10-21T23:46:24.398Z,57.78
2022-10-21T23:48:51.595Z,57.03
2022-10-21T23:51:19.387Z,58.25
2022-10-21T23:53:46.984Z,60.65
2022-10-21T23:56:14.299Z,57.05
2022-10-21T23:58:41.572Z,56.40
